sensor_id;sensor_type;location;lat;lon;timestamp;P1;durP1;ratioP1;P2;durP2;ratioP2
49592;SDS011;35499;51.482;4.264;2022-08-20T00:00:41;10.45;;;4.15;;
49592;SDS011;35499;51.482;4.264;2022-08-20T00:03:27;8.15;;;3.85;;
49592;SDS011;35499;51.482;4.264;2022-08-20T00:06:13;8.27;;;3.85;;
49592;SDS011;35499;51.482;4.264;2022-08-20T00:08:57;18.10;;;5.65;;
49592;SDS011;35499;51.482;4.264;2022-08-20T00:11:41;9.45;;;3.88;;
49592;SDS011;35499;51.482;4.264;2022-08-20T00:14:26;8.70;;;3.70;;
49592;SDS011;35499;51.482;4.264;2022-08-20T00:17:10;14.63;;;4.60;;
49592;SDS011;35499;51.482;4.264;2022-08-20T00:19:54;9.75;;;4.35;;
49592;SDS011;35499;51.482;4.264;2022-08-20T00:22:38;12.35;;;3.97;;
49592;SDS011;35499;51.482;4.264;2022-08-20T00:25:23;12.88;;;3.75;;
49592;SDS011;35499;51.482;4.264;2022-08-20T00:28:07;13.38;;;3.85;;
49592;SDS011;35499;51.482;4.264;2022-08-20T00:30:51;11.82;;;4.82;;
49592;SDS011;35499;51.482;4.264;2022-08-20T00:33:35;10.73;;;4.25;;
49592;SDS011;35499;51.482;4.264;2022-08-20T00:36:20;11.00;;;3.90;;
49592;SDS011;35499;51.482;4.264;2022-08-20T00:39:04;14.10;;;4.60;;
49592;SDS011;35499;51.482;4.264;2022-08-20T00:41:48;13.75;;;3.88;;
49592;SDS011;35499;51.482;4.264;2022-08-20T00:44:34;13.93;;;4.32;;
49592;SDS011;35499;51.482;4.264;2022-08-20T00:47:18;14.82;;;3.95;;
49592;SDS011;35499;51.482;4.264;2022-08-20T00:50:03;10.35;;;4.03;;
49592;SDS011;35499;51.482;4.264;2022-08-20T00:52:49;14.95;;;4.07;;
49592;SDS011;35499;51.482;4.264;2022-08-20T00:55:34;11.40;;;4.50;;
49592;SDS011;35499;51.482;4.264;2022-08-20T00:58:19;15.63;;;4.70;;
49592;SDS011;35499;51.482;4.264;2022-08-20T01:01:03;11.98;;;4.80;;
49592;SDS011;35499;51.482;4.264;2022-08-20T01:03:48;11.82;;;4.28;;
49592;SDS011;35499;51.482;4.264;2022-08-20T01:06:32;13.68;;;3.83;;
49592;SDS011;35499;51.482;4.264;2022-08-20T01:09:16;11.50;;;4.63;;
49592;SDS011;35499;51.482;4.264;2022-08-20T01:12:00;12.88;;;4.65;;
49592;SDS011;35499;51.482;4.264;2022-08-20T01:14:44;10.93;;;4.10;;
49592;SDS011;35499;51.482;4.264;2022-08-20T01:17:29;10.05;;;3.90;;
49592;SDS011;35499;51.482;4.264;2022-08-20T01:20:25;10.45;;;3.83;;
49592;SDS011;35499;51.482;4.264;2022-08-20T01:23:21;15.18;;;3.97;;
49592;SDS011;35499;51.482;4.264;2022-08-20T01:26:14;16.38;;;4.47;;
49592;SDS011;35499;51.482;4.264;2022-08-20T01:29:02;13.10;;;4.35;;
49592;SDS011;35499;51.482;4.264;2022-08-20T01:31:47;9.95;;;4.55;;
49592;SDS011;35499;51.482;4.264;2022-08-20T01:34:31;9.07;;;3.92;;
49592;SDS011;35499;51.482;4.264;2022-08-20T01:37:16;9.82;;;5.10;;
49592;SDS011;35499;51.482;4.264;2022-08-20T01:40:00;21.05;;;5.57;;
49592;SDS011;35499;51.482;4.264;2022-08-20T01:42:45;14.32;;;4.40;;
49592;SDS011;35499;51.482;4.264;2022-08-20T01:45:29;15.82;;;4.93;;
49592;SDS011;35499;51.482;4.264;2022-08-20T01:48:20;11.05;;;4.70;;
49592;SDS011;35499;51.482;4.264;2022-08-20T01:51:09;10.70;;;4.63;;
49592;SDS011;35499;51.482;4.264;2022-08-20T01:53:54;14.63;;;5.95;;
49592;SDS011;35499;51.482;4.264;2022-08-20T01:59:34;13.48;;;3.92;;
49592;SDS011;35499;51.482;4.264;2022-08-20T02:02:19;13.75;;;4.90;;
49592;SDS011;35499;51.482;4.264;2022-08-20T02:05:03;12.18;;;5.10;;
49592;SDS011;35499;51.482;4.264;2022-08-20T02:07:47;10.73;;;4.78;;
49592;SDS011;35499;51.482;4.264;2022-08-20T02:10:31;13.55;;;5.38;;
49592;SDS011;35499;51.482;4.264;2022-08-20T02:13:15;17.95;;;5.03;;
49592;SDS011;35499;51.482;4.264;2022-08-20T02:15:59;13.95;;;5.30;;
49592;SDS011;35499;51.482;4.264;2022-08-20T02:18:43;15.30;;;4.93;;
49592;SDS011;35499;51.482;4.264;2022-08-20T02:21:28;13.95;;;5.65;;
49592;SDS011;35499;51.482;4.264;2022-08-20T02:24:13;15.98;;;4.50;;
49592;SDS011;35499;51.482;4.264;2022-08-20T02:26:57;15.07;;;4.68;;
49592;SDS011;35499;51.482;4.264;2022-08-20T02:29:41;14.55;;;5.13;;
49592;SDS011;35499;51.482;4.264;2022-08-20T02:32:25;13.82;;;5.38;;
49592;SDS011;35499;51.482;4.264;2022-08-20T02:35:11;14.35;;;4.70;;
49592;SDS011;35499;51.482;4.264;2022-08-20T02:37:56;10.85;;;5.07;;
49592;SDS011;35499;51.482;4.264;2022-08-20T02:40:40;15.48;;;5.88;;
49592;SDS011;35499;51.482;4.264;2022-08-20T02:43:26;13.85;;;5.72;;
49592;SDS011;35499;51.482;4.264;2022-08-20T02:46:10;15.15;;;5.55;;
49592;SDS011;35499;51.482;4.264;2022-08-20T02:48:54;15.77;;;5.85;;
49592;SDS011;35499;51.482;4.264;2022-08-20T02:51:38;11.02;;;5.10;;
49592;SDS011;35499;51.482;4.264;2022-08-20T02:54:22;20.42;;;5.90;;
49592;SDS011;35499;51.482;4.264;2022-08-20T02:57:10;14.80;;;5.88;;
49592;SDS011;35499;51.482;4.264;2022-08-20T02:59:55;13.23;;;5.95;;
49592;SDS011;35499;51.482;4.264;2022-08-20T03:02:39;14.32;;;6.35;;
49592;SDS011;35499;51.482;4.264;2022-08-20T03:05:23;11.77;;;6.13;;
49592;SDS011;35499;51.482;4.264;2022-08-20T03:08:08;14.07;;;5.45;;
49592;SDS011;35499;51.482;4.264;2022-08-20T03:10:52;13.65;;;6.30;;
49592;SDS011;35499;51.482;4.264;2022-08-20T03:13:36;9.55;;;5.63;;
49592;SDS011;35499;51.482;4.264;2022-08-20T03:16:20;13.18;;;6.68;;
49592;SDS011;35499;51.482;4.264;2022-08-20T03:19:04;14.95;;;6.30;;
49592;SDS011;35499;51.482;4.264;2022-08-20T03:21:48;10.68;;;5.45;;
49592;SDS011;35499;51.482;4.264;2022-08-20T03:24:33;10.23;;;6.13;;
49592;SDS011;35499;51.482;4.264;2022-08-20T03:27:16;11.90;;;6.07;;
49592;SDS011;35499;51.482;4.264;2022-08-20T03:30:01;9.18;;;5.55;;
49592;SDS011;35499;51.482;4.264;2022-08-20T03:32:45;13.20;;;6.05;;
49592;SDS011;35499;51.482;4.264;2022-08-20T03:35:29;14.75;;;7.80;;
49592;SDS011;35499;51.482;4.264;2022-08-20T03:38:14;15.23;;;7.18;;
49592;SDS011;35499;51.482;4.264;2022-08-20T03:40:58;12.77;;;6.78;;
49592;SDS011;35499;51.482;4.264;2022-08-20T03:43:42;13.15;;;6.63;;
49592;SDS011;35499;51.482;4.264;2022-08-20T03:46:26;11.20;;;6.38;;
49592;SDS011;35499;51.482;4.264;2022-08-20T03:49:10;11.38;;;6.43;;
49592;SDS011;35499;51.482;4.264;2022-08-20T03:51:54;13.57;;;7.10;;
49592;SDS011;35499;51.482;4.264;2022-08-20T03:54:38;14.40;;;6.40;;
49592;SDS011;35499;51.482;4.264;2022-08-20T03:57:23;13.70;;;6.57;;
49592;SDS011;35499;51.482;4.264;2022-08-20T04:00:07;14.60;;;6.30;;
49592;SDS011;35499;51.482;4.264;2022-08-20T04:02:51;13.73;;;7.28;;
49592;SDS011;35499;51.482;4.264;2022-08-20T04:05:35;15.38;;;7.15;;
49592;SDS011;35499;51.482;4.264;2022-08-20T04:08:24;10.93;;;6.68;;
49592;SDS011;35499;51.482;4.264;2022-08-20T04:11:09;14.43;;;6.68;;
49592;SDS011;35499;51.482;4.264;2022-08-20T04:13:53;13.43;;;6.70;;
49592;SDS011;35499;51.482;4.264;2022-08-20T04:16:38;17.00;;;7.25;;
49592;SDS011;35499;51.482;4.264;2022-08-20T04:19:23;11.38;;;6.25;;
49592;SDS011;35499;51.482;4.264;2022-08-20T04:22:07;17.17;;;7.63;;
49592;SDS011;35499;51.482;4.264;2022-08-20T04:24:51;19.48;;;7.43;;
49592;SDS011;35499;51.482;4.264;2022-08-20T04:27:38;20.90;;;7.38;;
49592;SDS011;35499;51.482;4.264;2022-08-20T04:30:22;12.85;;;6.22;;
49592;SDS011;35499;51.482;4.264;2022-08-20T04:33:08;15.82;;;6.80;;
49592;SDS011;35499;51.482;4.264;2022-08-20T04:35:53;14.18;;;7.50;;
49592;SDS011;35499;51.482;4.264;2022-08-20T04:38:37;20.05;;;7.25;;
49592;SDS011;35499;51.482;4.264;2022-08-20T04:41:21;24.63;;;7.63;;
49592;SDS011;35499;51.482;4.264;2022-08-20T04:44:05;15.40;;;7.03;;
49592;SDS011;35499;51.482;4.264;2022-08-20T04:46:49;18.50;;;8.18;;
49592;SDS011;35499;51.482;4.264;2022-08-20T04:49:33;16.33;;;7.50;;
49592;SDS011;35499;51.482;4.264;2022-08-20T04:52:17;16.92;;;7.50;;
49592;SDS011;35499;51.482;4.264;2022-08-20T04:55:01;13.55;;;7.28;;
49592;SDS011;35499;51.482;4.264;2022-08-20T04:57:45;21.25;;;7.55;;
49592;SDS011;35499;51.482;4.264;2022-08-20T05:00:29;18.60;;;8.18;;
49592;SDS011;35499;51.482;4.264;2022-08-20T05:03:14;14.63;;;7.88;;
49592;SDS011;35499;51.482;4.264;2022-08-20T05:05:59;23.95;;;8.73;;
49592;SDS011;35499;51.482;4.264;2022-08-20T05:08:44;17.35;;;7.82;;
49592;SDS011;35499;51.482;4.264;2022-08-20T05:11:28;16.48;;;8.38;;
49592;SDS011;35499;51.482;4.264;2022-08-20T05:14:12;20.52;;;8.80;;
49592;SDS011;35499;51.482;4.264;2022-08-20T05:16:57;19.30;;;8.90;;
49592;SDS011;35499;51.482;4.264;2022-08-20T05:19:44;18.45;;;8.23;;
49592;SDS011;35499;51.482;4.264;2022-08-20T05:22:30;22.40;;;9.60;;
49592;SDS011;35499;51.482;4.264;2022-08-20T05:25:14;22.38;;;9.73;;
49592;SDS011;35499;51.482;4.264;2022-08-20T05:27:58;17.52;;;9.18;;
49592;SDS011;35499;51.482;4.264;2022-08-20T05:30:45;17.85;;;7.80;;
49592;SDS011;35499;51.482;4.264;2022-08-20T05:33:29;12.10;;;7.70;;
49592;SDS011;35499;51.482;4.264;2022-08-20T05:36:13;14.65;;;6.93;;
49592;SDS011;35499;51.482;4.264;2022-08-20T05:38:57;13.38;;;7.05;;
49592;SDS011;35499;51.482;4.264;2022-08-20T05:41:41;9.02;;;5.57;;
49592;SDS011;35499;51.482;4.264;2022-08-20T05:44:25;11.30;;;5.30;;
49592;SDS011;35499;51.482;4.264;2022-08-20T05:47:09;9.70;;;4.75;;
49592;SDS011;35499;51.482;4.264;2022-08-20T05:49:53;8.38;;;5.13;;
49592;SDS011;35499;51.482;4.264;2022-08-20T05:52:37;9.77;;;4.60;;
49592;SDS011;35499;51.482;4.264;2022-08-20T05:55:21;7.28;;;4.18;;
49592;SDS011;35499;51.482;4.264;2022-08-20T05:58:07;8.30;;;4.05;;
49592;SDS011;35499;51.482;4.264;2022-08-20T06:00:52;10.50;;;4.57;;
49592;SDS011;35499;51.482;4.264;2022-08-20T06:03:36;9.55;;;4.85;;
49592;SDS011;35499;51.482;4.264;2022-08-20T06:06:39;11.00;;;4.20;;
49592;SDS011;35499;51.482;4.264;2022-08-20T06:09:23;8.90;;;4.70;;
49592;SDS011;35499;51.482;4.264;2022-08-20T06:12:08;9.52;;;3.90;;
49592;SDS011;35499;51.482;4.264;2022-08-20T06:14:52;8.23;;;4.80;;
49592;SDS011;35499;51.482;4.264;2022-08-20T06:17:36;8.63;;;4.32;;
49592;SDS011;35499;51.482;4.264;2022-08-20T06:23:05;8.27;;;4.15;;
49592;SDS011;35499;51.482;4.264;2022-08-20T06:25:49;7.55;;;3.67;;
49592;SDS011;35499;51.482;4.264;2022-08-20T06:28:33;7.18;;;3.90;;
49592;SDS011;35499;51.482;4.264;2022-08-20T06:31:18;9.00;;;4.20;;
49592;SDS011;35499;51.482;4.264;2022-08-20T06:34:03;7.97;;;3.67;;
49592;SDS011;35499;51.482;4.264;2022-08-20T06:39:31;7.88;;;3.53;;
49592;SDS011;35499;51.482;4.264;2022-08-20T06:50:31;7.65;;;3.08;;
49592;SDS011;35499;51.482;4.264;2022-08-20T07:23:20;5.13;;;1.70;;
49592;SDS011;35499;51.482;4.264;2022-08-20T07:26:04;3.90;;;1.60;;
49592;SDS011;35499;51.482;4.264;2022-08-20T07:28:50;4.68;;;1.30;;
49592;SDS011;35499;51.482;4.264;2022-08-20T07:31:34;4.35;;;1.60;;
49592;SDS011;35499;51.482;4.264;2022-08-20T07:34:38;6.80;;;1.75;;
49592;SDS011;35499;51.482;4.264;2022-08-20T07:37:21;3.90;;;1.40;;
49592;SDS011;35499;51.482;4.264;2022-08-20T07:40:07;4.47;;;1.58;;
49592;SDS011;35499;51.482;4.264;2022-08-20T07:42:55;4.80;;;1.40;;
49592;SDS011;35499;51.482;4.264;2022-08-20T07:45:39;5.05;;;1.92;;
49592;SDS011;35499;51.482;4.264;2022-08-20T07:48:23;7.68;;;2.33;;
49592;SDS011;35499;51.482;4.264;2022-08-20T07:51:12;6.68;;;1.65;;
49592;SDS011;35499;51.482;4.264;2022-08-20T07:53:56;4.32;;;1.50;;
49592;SDS011;35499;51.482;4.264;2022-08-20T07:56:41;10.68;;;1.67;;
49592;SDS011;35499;51.482;4.264;2022-08-20T07:59:25;3.28;;;1.42;;
49592;SDS011;35499;51.482;4.264;2022-08-20T08:02:10;3.90;;;1.40;;
49592;SDS011;35499;51.482;4.264;2022-08-20T08:04:55;4.70;;;1.35;;
49592;SDS011;35499;51.482;4.264;2022-08-20T08:07:39;6.38;;;1.50;;
49592;SDS011;35499;51.482;4.264;2022-08-20T08:10:23;4.97;;;1.15;;
49592;SDS011;35499;51.482;4.264;2022-08-20T08:13:08;4.60;;;1.13;;
49592;SDS011;35499;51.482;4.264;2022-08-20T08:15:54;4.63;;;1.50;;
49592;SDS011;35499;51.482;4.264;2022-08-20T08:18:49;4.15;;;1.10;;
49592;SDS011;35499;51.482;4.264;2022-08-20T08:21:35;6.15;;;0.90;;
49592;SDS011;35499;51.482;4.264;2022-08-20T08:24:19;4.25;;;1.15;;
49592;SDS011;35499;51.482;4.264;2022-08-20T08:27:03;6.95;;;1.10;;
49592;SDS011;35499;51.482;4.264;2022-08-20T08:29:47;5.72;;;1.20;;
49592;SDS011;35499;51.482;4.264;2022-08-20T08:32:33;3.60;;;1.00;;
49592;SDS011;35499;51.482;4.264;2022-08-20T08:35:17;3.97;;;1.20;;
49592;SDS011;35499;51.482;4.264;2022-08-20T08:38:01;3.85;;;1.15;;
49592;SDS011;35499;51.482;4.264;2022-08-20T08:40:45;3.70;;;0.90;;
49592;SDS011;35499;51.482;4.264;2022-08-20T08:43:31;4.00;;;1.08;;
49592;SDS011;35499;51.482;4.264;2022-08-20T08:46:17;4.63;;;1.10;;
49592;SDS011;35499;51.482;4.264;2022-08-20T08:49:01;2.67;;;0.80;;
49592;SDS011;35499;51.482;4.264;2022-08-20T08:51:50;5.80;;;1.30;;
49592;SDS011;35499;51.482;4.264;2022-08-20T08:54:40;2.85;;;0.93;;
49592;SDS011;35499;51.482;4.264;2022-08-20T08:57:25;3.10;;;0.90;;
49592;SDS011;35499;51.482;4.264;2022-08-20T09:00:12;7.18;;;1.10;;
49592;SDS011;35499;51.482;4.264;2022-08-20T09:08:30;3.63;;;0.93;;
49592;SDS011;35499;51.482;4.264;2022-08-20T09:13:59;4.40;;;0.80;;
49592;SDS011;35499;51.482;4.264;2022-08-20T09:16:44;3.30;;;1.00;;
49592;SDS011;35499;51.482;4.264;2022-08-20T09:19:28;4.03;;;0.95;;
49592;SDS011;35499;51.482;4.264;2022-08-20T09:22:14;3.63;;;1.10;;
49592;SDS011;35499;51.482;4.264;2022-08-20T09:24:58;11.82;;;1.35;;
49592;SDS011;35499;51.482;4.264;2022-08-20T09:27:42;6.32;;;1.05;;
49592;SDS011;35499;51.482;4.264;2022-08-20T09:30:26;4.22;;;0.93;;
49592;SDS011;35499;51.482;4.264;2022-08-20T09:33:10;4.18;;;0.90;;
49592;SDS011;35499;51.482;4.264;2022-08-20T09:35:54;3.83;;;0.88;;
49592;SDS011;35499;51.482;4.264;2022-08-20T09:38:38;2.63;;;0.95;;
49592;SDS011;35499;51.482;4.264;2022-08-20T09:41:22;4.25;;;1.00;;
49592;SDS011;35499;51.482;4.264;2022-08-20T09:44:06;5.20;;;1.10;;
49592;SDS011;35499;51.482;4.264;2022-08-20T09:46:50;4.68;;;1.60;;
49592;SDS011;35499;51.482;4.264;2022-08-20T09:49:34;3.75;;;0.98;;
49592;SDS011;35499;51.482;4.264;2022-08-20T09:52:21;5.10;;;1.35;;
49592;SDS011;35499;51.482;4.264;2022-08-20T09:55:52;5.15;;;1.05;;
49592;SDS011;35499;51.482;4.264;2022-08-20T10:00:58;7.20;;;1.23;;
49592;SDS011;35499;51.482;4.264;2022-08-20T10:03:43;2.88;;;0.95;;
49592;SDS011;35499;51.482;4.264;2022-08-20T10:06:27;5.63;;;1.42;;
49592;SDS011;35499;51.482;4.264;2022-08-20T10:09:10;6.45;;;1.40;;
49592;SDS011;35499;51.482;4.264;2022-08-20T10:11:54;4.93;;;1.30;;
49592;SDS011;35499;51.482;4.264;2022-08-20T10:14:38;4.15;;;1.10;;
49592;SDS011;35499;51.482;4.264;2022-08-20T10:17:22;5.72;;;1.15;;
49592;SDS011;35499;51.482;4.264;2022-08-20T10:20:08;3.28;;;1.00;;
49592;SDS011;35499;51.482;4.264;2022-08-20T10:22:52;4.28;;;1.10;;
49592;SDS011;35499;51.482;4.264;2022-08-20T10:25:36;4.90;;;1.00;;
49592;SDS011;35499;51.482;4.264;2022-08-20T10:28:20;4.05;;;1.17;;
49592;SDS011;35499;51.482;4.264;2022-08-20T10:31:04;3.75;;;0.80;;
49592;SDS011;35499;51.482;4.264;2022-08-20T10:33:48;3.72;;;1.02;;
49592;SDS011;35499;51.482;4.264;2022-08-20T10:36:32;3.58;;;0.88;;
49592;SDS011;35499;51.482;4.264;2022-08-20T10:39:16;3.40;;;0.80;;
49592;SDS011;35499;51.482;4.264;2022-08-20T10:42:00;4.55;;;1.00;;
49592;SDS011;35499;51.482;4.264;2022-08-20T10:44:44;4.97;;;0.80;;
49592;SDS011;35499;51.482;4.264;2022-08-20T10:47:29;5.38;;;1.23;;
49592;SDS011;35499;51.482;4.264;2022-08-20T10:50:15;5.05;;;0.88;;
49592;SDS011;35499;51.482;4.264;2022-08-20T10:52:59;3.97;;;1.08;;
49592;SDS011;35499;51.482;4.264;2022-08-20T10:55:43;5.70;;;1.55;;
49592;SDS011;35499;51.482;4.264;2022-08-20T10:58:27;5.38;;;1.05;;
49592;SDS011;35499;51.482;4.264;2022-08-20T11:01:11;4.43;;;1.15;;
49592;SDS011;35499;51.482;4.264;2022-08-20T11:03:55;4.13;;;1.20;;
49592;SDS011;35499;51.482;4.264;2022-08-20T11:06:39;3.97;;;1.10;;
49592;SDS011;35499;51.482;4.264;2022-08-20T11:09:23;4.03;;;1.10;;
49592;SDS011;35499;51.482;4.264;2022-08-20T11:12:07;5.80;;;1.13;;
49592;SDS011;35499;51.482;4.264;2022-08-20T11:14:51;4.28;;;1.02;;
49592;SDS011;35499;51.482;4.264;2022-08-20T11:17:38;3.45;;;1.10;;
49592;SDS011;35499;51.482;4.264;2022-08-20T11:20:22;3.88;;;1.17;;
49592;SDS011;35499;51.482;4.264;2022-08-20T11:23:08;5.93;;;1.52;;
49592;SDS011;35499;51.482;4.264;2022-08-20T11:25:52;4.55;;;1.15;;
49592;SDS011;35499;51.482;4.264;2022-08-20T11:28:36;3.90;;;1.10;;
49592;SDS011;35499;51.482;4.264;2022-08-20T11:31:20;3.33;;;1.10;;
49592;SDS011;35499;51.482;4.264;2022-08-20T11:34:04;5.65;;;1.27;;
49592;SDS011;35499;51.482;4.264;2022-08-20T11:36:49;3.90;;;1.10;;
49592;SDS011;35499;51.482;4.264;2022-08-20T11:39:32;4.00;;;1.40;;
49592;SDS011;35499;51.482;4.264;2022-08-20T11:42:16;6.15;;;1.52;;
49592;SDS011;35499;51.482;4.264;2022-08-20T11:45:00;5.82;;;1.25;;
49592;SDS011;35499;51.482;4.264;2022-08-20T11:47:45;3.25;;;1.13;;
49592;SDS011;35499;51.482;4.264;2022-08-20T11:50:29;2.80;;;1.23;;
49592;SDS011;35499;51.482;4.264;2022-08-20T11:53:13;5.15;;;1.08;;
49592;SDS011;35499;51.482;4.264;2022-08-20T11:55:57;6.50;;;1.15;;
49592;SDS011;35499;51.482;4.264;2022-08-20T11:58:42;4.10;;;1.00;;
49592;SDS011;35499;51.482;4.264;2022-08-20T12:01:26;3.03;;;1.00;;
49592;SDS011;35499;51.482;4.264;2022-08-20T12:04:10;5.63;;;1.23;;
49592;SDS011;35499;51.482;4.264;2022-08-20T12:06:54;3.85;;;1.15;;
49592;SDS011;35499;51.482;4.264;2022-08-20T12:09:38;5.72;;;1.00;;
49592;SDS011;35499;51.482;4.264;2022-08-20T12:12:22;4.22;;;0.90;;
49592;SDS011;35499;51.482;4.264;2022-08-20T12:15:07;3.95;;;1.10;;
49592;SDS011;35499;51.482;4.264;2022-08-20T12:17:52;6.10;;;1.42;;
49592;SDS011;35499;51.482;4.264;2022-08-20T12:20:36;8.88;;;1.10;;
49592;SDS011;35499;51.482;4.264;2022-08-20T12:23:20;3.33;;;1.38;;
49592;SDS011;35499;51.482;4.264;2022-08-20T12:26:04;3.70;;;1.33;;
49592;SDS011;35499;51.482;4.264;2022-08-20T12:28:48;6.13;;;1.10;;
49592;SDS011;35499;51.482;4.264;2022-08-20T12:31:32;3.63;;;0.98;;
49592;SDS011;35499;51.482;4.264;2022-08-20T12:34:16;3.28;;;0.90;;
49592;SDS011;35499;51.482;4.264;2022-08-20T12:37:01;6.15;;;1.20;;
49592;SDS011;35499;51.482;4.264;2022-08-20T12:39:47;4.15;;;0.90;;
49592;SDS011;35499;51.482;4.264;2022-08-20T12:42:32;2.90;;;1.15;;
49592;SDS011;35499;51.482;4.264;2022-08-20T12:45:19;5.13;;;1.00;;
49592;SDS011;35499;51.482;4.264;2022-08-20T12:48:24;3.63;;;0.85;;
49592;SDS011;35499;51.482;4.264;2022-08-20T12:51:09;4.93;;;1.00;;
49592;SDS011;35499;51.482;4.264;2022-08-20T12:56:37;4.65;;;1.10;;
49592;SDS011;35499;51.482;4.264;2022-08-20T12:59:22;4.18;;;0.90;;
49592;SDS011;35499;51.482;4.264;2022-08-20T13:02:07;3.13;;;1.30;;
49592;SDS011;35499;51.482;4.264;2022-08-20T13:04:50;4.05;;;0.77;;
49592;SDS011;35499;51.482;4.264;2022-08-20T13:45:51;3.20;;;0.70;;
49592;SDS011;35499;51.482;4.264;2022-08-20T13:48:38;4.70;;;1.00;;
49592;SDS011;35499;51.482;4.264;2022-08-20T13:51:21;3.92;;;0.57;;
49592;SDS011;35499;51.482;4.264;2022-08-20T13:54:05;2.72;;;0.60;;
49592;SDS011;35499;51.482;4.264;2022-08-20T13:56:51;2.53;;;0.52;;
49592;SDS011;35499;51.482;4.264;2022-08-20T13:59:36;2.63;;;0.63;;
